Latest Weather Forecast - Saturday 17th September 2022(12 Noon))

Forecast Period: 

12 noon 17th September, 2022 to 6 pm 17th September,2022

Synopsis:
Feeder bands associated with Tropical Storm Fiona, presently located over the Northern Leeward Islands are affecting the islands
Forecast:
Generally cloudy and breezy with showers, some of which may be heavy and isolated thunderstorms

Weather Advisory:

Residents and motorists in areas prone to flash-flooding, or near rivers and streams should remain alert

Winds:

SSE-S at 15 - 30 km/h (9-18 mph) with higher gust near showers
Sea Conditions:
Moderate in open water with swells from 1.5 m to 2.5 m

Marine Advisory:

Small craft operators and sea bathers should exercise caution for breaking waves and rip currents especially along eastern coasts

Upcoming Tides:
High:  ****  12:52 am
Low: 

 ****

 07:24 pm

Aviation WX

[Source: ADDS]
METAR
TVSA 012000Z 00000KT 9999 SCT018 29/25 Q1013 NOSIG =
TVSA 011700Z 0118/0218 10007KT 9999 SCT018
TAF
TVSA 011700Z 0118/0218 10007KT 9999 SCT018 =
SR / SS: 09:53 / 21:54 UTC (Sunrise Sunset 2022-10-01)